createdAt,value
2017-07-21T00:00:25.323Z,58.50
2017-07-21T00:02:55.865Z,58.70
2017-07-21T00:05:23.364Z,58.80
2017-07-21T00:07:50.842Z,58.90
2017-07-21T00:10:18.587Z,59.30
2017-07-21T00:12:46.066Z,59.40
2017-07-21T00:15:13.542Z,59.60
2017-07-21T00:17:47.163Z,59.50
2017-07-21T00:20:14.639Z,59.60
2017-07-21T00:22:45.808Z,59.80
2017-07-21T00:25:13.395Z,60.00
2017-07-21T00:27:40.889Z,60.00
2017-07-21T00:30:08.388Z,60.70
2017-07-21T00:32:46.500Z,60.90
2017-07-21T00:35:15.685Z,61.20
2017-07-21T00:37:43.944Z,61.80
2017-07-21T00:40:11.439Z,61.70
2017-07-21T00:42:38.926Z,61.80
2017-07-21T00:45:16.402Z,62.20
2017-07-21T00:47:44.159Z,62.70
2017-07-21T00:50:11.638Z,63.20
2017-07-21T00:52:45.250Z,64.00
2017-07-21T00:55:15.874Z,64.00
2017-07-21T00:57:43.351Z,64.30
2017-07-21T01:00:16.897Z,64.50
2017-07-21T01:02:44.381Z,64.80
2017-07-21T01:05:15.704Z,65.10
2017-07-21T01:07:46.956Z,65.40
2017-07-21T01:10:15.588Z,65.60
2017-07-21T01:12:43.076Z,65.70
2017-07-21T01:15:16.877Z,66.00
2017-07-21T01:17:45.123Z,66.00
2017-07-21T01:20:12.611Z,66.00
2017-07-21T01:22:47.355Z,66.00
2017-07-21T01:25:14.842Z,65.90
2017-07-21T01:27:42.672Z,66.00
2017-07-21T01:30:10.924Z,66.20
2017-07-21T01:32:38.420Z,66.20
2017-07-21T01:35:06.284Z,66.20
2017-07-21T01:37:33.765Z,67.10
2017-07-21T01:40:07.626Z,66.30
2017-07-21T01:42:45.768Z,66.70
2017-07-21T01:45:13.527Z,66.20
2017-07-21T01:47:41.007Z,66.60
2017-07-21T01:50:08.484Z,66.80
2017-07-21T01:52:45.778Z,67.00
2017-07-21T01:55:13.253Z,67.00
2017-07-21T01:57:47.195Z,67.00
2017-07-21T02:00:15.730Z,67.30
2017-07-21T02:02:46.243Z,67.60
2017-07-21T02:05:17.035Z,67.90
2017-07-21T02:07:45.146Z,68.20
2017-07-21T02:10:12.626Z,68.30
2017-07-21T02:12:40.125Z,68.30
2017-07-21T02:15:07.607Z,68.50
2017-07-21T02:17:35.353Z,68.10
2017-07-21T02:20:05.792Z,68.30
2017-07-21T02:22:36.619Z,68.30
2017-07-21T02:25:04.112Z,68.40
2017-07-21T02:27:31.595Z,68.90
2017-07-21T02:29:59.097Z,68.70
2017-07-21T02:32:26.579Z,68.60
2017-07-21T02:34:55.905Z,68.90
2017-07-21T02:37:23.378Z,68.70
2017-07-21T02:39:50.876Z,69.00
2017-07-21T02:42:18.357Z,69.50
2017-07-21T02:44:46.187Z,69.70
2017-07-21T02:47:13.676Z,69.80
2017-07-21T02:49:41.164Z,69.80
2017-07-21T02:52:15.681Z,70.20
2017-07-21T02:54:46.206Z,70.30
2017-07-21T02:57:13.696Z,70.30
2017-07-21T02:59:47.236Z,70.60
2017-07-21T03:02:15.130Z,70.10
2017-07-21T03:04:42.887Z,69.80
2017-07-21T03:07:16.147Z,69.90
2017-07-21T03:09:47.188Z,70.30
2017-07-21T03:12:15.406Z,71.00
2017-07-21T03:14:45.944Z,71.10
2017-07-21T03:17:13.440Z,71.30
2017-07-21T03:19:41.688Z,71.60
2017-07-21T03:22:16.018Z,71.50
2017-07-21T03:24:44.274Z,71.80
2017-07-21T03:27:15.759Z,71.60
2017-07-21T03:29:43.254Z,71.50
2017-07-21T03:32:16.765Z,71.70
2017-07-21T03:34:44.248Z,71.70
2017-07-21T03:37:11.736Z,71.80
2017-07-21T03:39:39.232Z,71.80
2017-07-21T03:42:06.711Z,72.00
2017-07-21T03:44:34.514Z,72.20
2017-07-21T03:47:02.768Z,72.40
2017-07-21T03:49:36.794Z,72.20
2017-07-21T03:52:05.033Z,72.50
2017-07-21T03:54:35.954Z,72.30
2017-07-21T03:57:03.790Z,72.50
2017-07-21T03:59:35.115Z,72.70
2017-07-21T04:02:02.599Z,72.80
2017-07-21T04:04:36.163Z,72.90
2017-07-21T04:07:03.639Z,73.00
2017-07-21T04:09:37.647Z,73.00
2017-07-21T04:12:05.895Z,72.80
2017-07-21T04:14:33.380Z,72.80
2017-07-21T04:17:01.166Z,73.00
2017-07-21T04:19:35.608Z,73.10
2017-07-21T04:22:03.401Z,73.40
2017-07-21T04:24:30.901Z,73.70
2017-07-21T04:26:58.398Z,73.70
2017-07-21T04:29:36.160Z,73.70
2017-07-21T04:32:04.404Z,73.60
2017-07-21T04:34:31.892Z,73.40
2017-07-21T04:37:06.899Z,73.50
2017-07-21T04:39:34.382Z,73.30
2017-07-21T04:42:01.861Z,73.40
2017-07-21T04:44:35.462Z,73.30
2017-07-21T04:47:06.303Z,73.10
2017-07-21T04:49:37.440Z,73.10
2017-07-21T04:52:04.932Z,73.20
2017-07-21T04:54:32.423Z,73.00
2017-07-21T04:56:59.910Z,73.00
2017-07-21T04:59:35.119Z,73.00
2017-07-21T05:02:06.396Z,72.90
2017-07-21T05:04:33.874Z,72.80
2017-07-21T05:07:05.127Z,72.60
2017-07-21T05:09:35.599Z,72.40
2017-07-21T05:12:03.088Z,72.20
2017-07-21T05:14:30.842Z,72.00
2017-07-21T05:17:04.795Z,71.80
2017-07-21T05:19:32.560Z,71.80
2017-07-21T05:22:05.818Z,71.80
2017-07-21T05:24:33.693Z,71.60
2017-07-21T05:27:01.215Z,71.50
2017-07-21T05:29:35.669Z,71.40
2017-07-21T05:32:06.256Z,71.20
2017-07-21T05:34:37.136Z,70.90
2017-07-21T05:37:05.479Z,70.80
2017-07-21T05:39:35.993Z,70.90
2017-07-21T05:42:06.978Z,70.50
2017-07-21T05:44:44.874Z,70.30
2017-07-21T05:47:13.460Z,70.20
2017-07-21T05:49:47.097Z,70.10
2017-07-21T05:52:14.921Z,70.10
2017-07-21T05:54:46.538Z,69.40
2017-07-21T05:57:15.482Z,69.40
2017-07-21T05:59:46.684Z,69.10
2017-07-21T06:02:15.146Z,68.80
2017-07-21T06:04:45.668Z,68.60
2017-07-21T06:07:13.155Z,68.50
2017-07-21T06:09:46.876Z,68.60
2017-07-21T06:12:14.350Z,68.60
2017-07-21T06:14:46.058Z,67.90
2017-07-21T06:17:13.891Z,67.80
2017-07-21T06:19:47.780Z,67.80
2017-07-21T06:22:16.380Z,67.80
2017-07-21T06:24:43.870Z,67.70
2017-07-21T06:27:11.362Z,67.30
2017-07-21T06:29:45.304Z,66.80
2017-07-21T06:32:13.556Z,65.60
2017-07-21T06:34:42.156Z,65.50
2017-07-21T06:37:09.648Z,65.10
2017-07-21T06:39:45.919Z,64.90
2017-07-21T06:42:13.427Z,64.60
2017-07-21T06:44:46.974Z,64.70
2017-07-21T06:47:15.504Z,64.70
2017-07-21T06:49:43.762Z,64.00
2017-07-21T06:52:17.459Z,64.00
2017-07-21T06:54:44.943Z,64.00
2017-07-21T06:57:13.891Z,64.40
2017-07-21T06:59:45.241Z,63.40
2017-07-21T07:02:12.736Z,63.00
2017-07-21T07:04:40.518Z,61.90
2017-07-21T07:07:08.005Z,60.80
2017-07-21T07:09:35.483Z,59.80
2017-07-21T07:12:06.259Z,59.00
2017-07-21T07:14:33.753Z,58.90
2017-07-21T07:17:01.243Z,57.90
2017-07-21T07:19:35.498Z,56.80
2017-07-21T07:22:03.739Z,56.60
2017-07-21T07:24:37.708Z,56.50
2017-07-21T07:27:05.199Z,56.20
2017-07-21T07:29:32.679Z,55.90
2017-07-21T07:32:06.384Z,56.50
2017-07-21T07:34:36.900Z,56.30
2017-07-21T07:37:04.401Z,55.80
2017-07-21T07:39:32.280Z,55.70
2017-07-21T07:41:59.759Z,55.60
2017-07-21T07:44:35.446Z,56.00
2017-07-21T07:47:02.922Z,55.20
2017-07-21T07:49:37.656Z,54.70
2017-07-21T07:52:05.905Z,53.80
2017-07-21T07:54:36.794Z,53.60
2017-07-21T07:57:04.295Z,53.90
2017-07-21T07:59:37.844Z,53.40
2017-07-21T08:02:05.601Z,53.00
2017-07-21T08:04:36.113Z,52.50
2017-07-21T08:07:04.372Z,53.10
2017-07-21T08:09:32.164Z,52.40
2017-07-21T08:11:59.667Z,52.30
2017-07-21T08:14:35.431Z,52.40
2017-07-21T08:17:02.923Z,51.80
2017-07-21T08:19:31.176Z,51.60
2017-07-21T08:21:58.670Z,51.60
2017-07-21T08:24:36.999Z,51.90
2017-07-21T08:27:04.509Z,51.80
2017-07-21T08:29:31.989Z,50.60
2017-07-21T08:32:06.803Z,50.60
2017-07-21T08:34:34.287Z,49.90
2017-07-21T08:37:02.531Z,50.90
2017-07-21T08:39:36.731Z,50.80
2017-07-21T08:42:05.219Z,49.30
2017-07-21T08:44:32.703Z,47.00
2017-07-21T08:47:06.382Z,46.20
2017-07-21T08:49:36.911Z,45.80
2017-07-21T08:52:04.413Z,45.30
2017-07-21T08:54:35.468Z,44.00
2017-07-21T08:57:06.664Z,44.40
2017-07-21T08:59:35.539Z,43.60
2017-07-21T09:02:06.852Z,43.60
2017-07-21T09:04:35.766Z,42.00
2017-07-21T09:07:05.093Z,42.00
2017-07-21T09:09:36.078Z,42.30
2017-07-21T09:12:03.558Z,41.90
2017-07-21T09:14:31.039Z,41.50
2017-07-21T09:17:05.383Z,41.30
2017-07-21T09:19:32.863Z,41.40
2017-07-21T09:22:06.583Z,41.30
2017-07-21T09:24:34.071Z,40.50
2017-07-21T09:27:07.765Z,40.00
2017-07-21T09:29:45.154Z,40.60
2017-07-21T09:32:12.984Z,39.10
2017-07-21T09:34:46.394Z,38.90
2017-07-21T09:37:14.247Z,40.00
2017-07-21T09:39:41.747Z,40.20
2017-07-21T09:42:15.304Z,41.00
2017-07-21T09:44:42.816Z,39.80
2017-07-21T09:47:10.298Z,40.00
2017-07-21T09:49:37.800Z,39.50
2017-07-21T09:52:15.680Z,38.90
2017-07-21T09:54:44.288Z,38.00
2017-07-21T09:57:15.368Z,38.00
2017-07-21T09:59:42.858Z,37.80
2017-07-21T10:02:10.347Z,37.50
2017-07-21T10:04:44.520Z,37.20
2017-07-21T10:07:16.212Z,37.30
2017-07-21T10:09:43.723Z,36.50
2017-07-21T10:12:11.235Z,34.70
2017-07-21T10:14:38.734Z,33.20
2017-07-21T10:17:16.202Z,31.90
2017-07-21T10:19:47.441Z,30.70
2017-07-21T10:22:15.626Z,30.60
2017-07-21T10:24:43.122Z,31.30
2017-07-21T10:27:10.954Z,30.00
2017-07-21T10:29:38.438Z,29.10
2017-07-21T10:32:16.324Z,28.50
2017-07-21T10:34:43.818Z,28.80
2017-07-21T10:37:11.294Z,28.80
2017-07-21T10:39:39.166Z,28.30
2017-07-21T10:42:06.648Z,28.60
2017-07-21T10:44:35.255Z,28.00
2017-07-21T10:47:03.006Z,27.50
2017-07-21T10:49:30.496Z,26.20
2017-07-21T10:52:05.027Z,26.10
2017-07-21T10:54:33.287Z,25.90
2017-07-21T10:57:07.374Z,25.60
2017-07-21T10:59:34.865Z,26.20
2017-07-21T11:02:05.588Z,25.70
2017-07-21T11:04:33.398Z,24.60
2017-07-21T11:07:01.643Z,23.80
2017-07-21T11:09:35.454Z,23.80
2017-07-21T11:12:02.943Z,24.60
2017-07-21T11:14:36.835Z,24.70
2017-07-21T11:17:05.336Z,25.20
2017-07-21T11:19:37.174Z,25.10
2017-07-21T11:22:05.474Z,25.20
2017-07-21T11:24:32.952Z,25.20
2017-07-21T11:27:00.754Z,24.90
2017-07-21T11:29:28.256Z,24.50
2017-07-21T11:32:05.947Z,23.50
2017-07-21T11:34:33.441Z,23.10
2017-07-21T11:37:00.933Z,23.50
2017-07-21T11:39:35.478Z,23.80
2017-07-21T11:42:02.970Z,23.90
2017-07-21T11:44:30.814Z,22.90
2017-07-21T11:46:58.308Z,22.90
2017-07-21T11:49:36.250Z,23.30
2017-07-21T11:52:04.508Z,24.80
2017-07-21T11:54:32.006Z,24.70
2017-07-21T11:57:07.047Z,25.50
2017-07-21T11:59:34.539Z,25.40
2017-07-21T12:02:02.033Z,25.80
2017-07-21T12:04:29.829Z,26.40
2017-07-21T12:07:05.244Z,28.20
2017-07-21T12:09:33.851Z,29.50
2017-07-21T12:12:01.336Z,29.40
2017-07-21T12:14:35.518Z,29.20
2017-07-21T12:17:03.011Z,28.30
2017-07-21T12:19:30.496Z,28.90
2017-07-21T12:21:57.978Z,28.70
2017-07-21T12:24:34.750Z,29.30
2017-07-21T12:27:02.519Z,29.20
2017-07-21T12:29:30.773Z,29.80
2017-07-21T12:32:05.741Z,29.70
2017-07-21T12:34:33.985Z,30.50
2017-07-21T12:37:07.939Z,30.50
2017-07-21T12:39:35.434Z,30.80
2017-07-21T12:42:02.918Z,31.10
2017-07-21T12:44:36.773Z,29.40
2017-07-21T12:47:05.596Z,30.00
2017-07-21T12:49:33.359Z,29.60
2017-07-21T12:52:00.837Z,29.30
2017-07-21T12:54:35.324Z,28.80
2017-07-21T12:57:05.834Z,29.00
2017-07-21T12:59:37.680Z,28.70
2017-07-21T13:02:05.169Z,28.00
2017-07-21T13:04:35.722Z,29.20
2017-07-21T13:07:06.716Z,29.50
2017-07-21T13:09:34.299Z,29.10
2017-07-21T13:12:01.784Z,27.60
2017-07-21T13:14:29.282Z,27.00
2017-07-21T13:16:57.526Z,26.40
2017-07-21T13:19:25.948Z,26.30
2017-07-21T13:21:53.433Z,25.20
2017-07-21T13:24:27.776Z,24.80
2017-07-21T13:26:56.097Z,24.20
2017-07-21T13:29:26.927Z,23.90
2017-07-21T13:32:05.631Z,22.60
2017-07-21T13:34:33.120Z,22.60
2017-07-21T13:37:06.791Z,22.70
2017-07-21T13:39:35.319Z,23.20
2017-07-21T13:42:05.848Z,23.50
2017-07-21T13:44:36.776Z,23.70
2017-07-21T13:47:04.269Z,23.40
2017-07-21T13:49:35.522Z,23.80
2017-07-21T13:52:03.278Z,23.30
2017-07-21T13:54:36.407Z,23.20
2017-07-21T13:57:04.184Z,23.00
2017-07-21T13:59:31.662Z,23.40
2017-07-21T14:01:59.146Z,23.20
2017-07-21T14:04:34.745Z,23.50
2017-07-21T14:07:03.007Z,22.40
2017-07-21T14:09:36.871Z,22.40
2017-07-21T14:12:04.437Z,23.10
2017-07-21T14:14:35.737Z,23.10
2017-07-21T14:17:07.018Z,24.10
2017-07-21T14:19:35.902Z,25.60
2017-07-21T14:22:05.163Z,26.60
2017-07-21T14:24:32.643Z,26.70
2017-07-21T14:27:06.208Z,26.90
2017-07-21T14:29:33.699Z,27.50
2017-07-21T14:32:01.562Z,27.30
2017-07-21T14:34:36.274Z,28.70
2017-07-21T14:37:04.873Z,29.00
2017-07-21T14:39:35.812Z,28.40
2017-07-21T14:42:03.294Z,28.20
2017-07-21T14:44:31.100Z,28.00
2017-07-21T14:47:05.247Z,28.50
2017-07-21T14:49:33.024Z,28.70
2017-07-21T14:52:06.292Z,28.30
2017-07-21T14:54:34.911Z,28.90
2017-07-21T14:57:05.914Z,28.80
2017-07-21T14:59:36.787Z,28.20
2017-07-21T15:02:04.282Z,28.10
2017-07-21T15:04:31.768Z,28.50
2017-07-21T15:07:04.979Z,28.90
2017-07-21T15:09:36.864Z,29.80
2017-07-21T15:12:04.717Z,29.70
2017-07-21T15:14:35.848Z,30.30
2017-07-21T15:17:06.737Z,30.60
2017-07-21T15:19:35.938Z,30.60
2017-07-21T15:22:06.729Z,31.20
2017-07-21T15:24:36.028Z,31.70
2017-07-21T15:27:04.289Z,30.30
2017-07-21T15:29:32.895Z,30.50
2017-07-21T15:32:00.397Z,30.40
2017-07-21T15:34:27.883Z,30.70
2017-07-21T15:37:06.165Z,31.40
2017-07-21T15:39:33.649Z,31.50
2017-07-21T15:42:05.289Z,31.90
2017-07-21T15:44:33.060Z,32.00
2017-07-21T15:47:00.544Z,31.40
2017-07-21T15:49:36.017Z,32.00
2017-07-21T15:52:03.498Z,31.90
2017-07-21T15:54:37.068Z,33.20
2017-07-21T15:57:04.558Z,32.50
2017-07-21T15:59:32.058Z,31.80
2017-07-21T16:02:05.500Z,32.30
2017-07-21T16:04:33.093Z,31.70
2017-07-21T16:07:00.898Z,31.80
2017-07-21T16:09:28.394Z,31.90
2017-07-21T16:11:55.882Z,32.10
2017-07-21T16:14:23.644Z,32.30
2017-07-21T16:16:57.290Z,32.80
2017-07-21T16:19:25.151Z,33.00
2017-07-21T16:21:55.945Z,33.50
2017-07-21T16:24:26.754Z,34.00
2017-07-21T16:26:54.273Z,34.10
2017-07-21T16:29:22.569Z,34.90
2017-07-21T16:31:50.335Z,34.80
2017-07-21T16:34:17.832Z,35.00
2017-07-21T16:36:55.780Z,34.50
2017-07-21T16:39:26.188Z,34.20
2017-07-21T16:41:53.677Z,34.20
2017-07-21T16:44:21.189Z,34.20
2017-07-21T16:46:48.683Z,34.40
2017-07-21T16:49:26.681Z,34.70
2017-07-21T16:51:54.935Z,35.00
2017-07-21T16:54:26.045Z,34.90
2017-07-21T16:56:53.804Z,35.00
2017-07-21T16:59:21.308Z,35.30
2017-07-21T17:01:49.573Z,36.90
2017-07-21T17:04:17.067Z,36.40
2017-07-21T17:06:44.570Z,35.60
2017-07-21T17:09:12.058Z,35.40
2017-07-21T17:11:45.878Z,35.20
2017-07-21T17:14:13.378Z,35.00
2017-07-21T17:16:47.313Z,35.50
2017-07-21T17:19:16.069Z,35.20
2017-07-21T17:21:46.984Z,34.40
2017-07-21T17:24:15.188Z,34.60
2017-07-21T17:26:45.884Z,35.00
2017-07-21T17:29:16.513Z,34.20
2017-07-21T17:31:47.035Z,34.50
2017-07-21T17:34:14.803Z,34.80
2017-07-21T17:36:45.204Z,35.50
2017-07-21T17:39:16.196Z,35.20
2017-07-21T17:41:45.484Z,35.50
2017-07-21T17:44:16.310Z,35.90
2017-07-21T17:46:45.692Z,36.20
2017-07-21T17:49:13.205Z,36.70
2017-07-21T17:51:41.552Z,36.30
2017-07-21T17:54:09.807Z,37.90
2017-07-21T17:56:45.875Z,37.10
2017-07-21T17:59:13.362Z,37.80
2017-07-21T18:01:40.878Z,37.90
2017-07-21T18:04:15.538Z,38.10
2017-07-21T18:06:43.009Z,38.30
2017-07-21T18:09:16.565Z,38.60
2017-07-21T18:11:44.076Z,38.90
2017-07-21T18:14:17.689Z,39.10
2017-07-21T18:16:45.172Z,39.30
2017-07-21T18:19:12.671Z,39.60
2017-07-21T18:21:46.757Z,39.90
2017-07-21T18:24:15.247Z,40.10
2017-07-21T18:26:45.731Z,40.20
2017-07-21T18:29:13.490Z,40.20
2017-07-21T18:31:46.942Z,40.40
2017-07-21T18:34:14.713Z,40.50
2017-07-21T18:36:46.405Z,40.80
2017-07-21T18:39:13.895Z,40.80
2017-07-21T18:41:41.659Z,41.20
2017-07-21T18:44:09.151Z,41.30
2017-07-21T18:46:37.420Z,41.40
2017-07-21T18:49:05.194Z,41.40
2017-07-21T18:51:36.029Z,41.50
2017-07-21T18:54:07.011Z,41.80
2017-07-21T18:56:35.220Z,42.20
2017-07-21T18:59:02.708Z,42.50
2017-07-21T19:01:30.470Z,42.70
2017-07-21T19:04:05.645Z,42.80
2017-07-21T19:06:33.423Z,43.00
2017-07-21T19:09:00.902Z,43.20
2017-07-21T19:11:35.735Z,43.30
2017-07-21T19:14:06.351Z,43.40
2017-07-21T19:16:37.121Z,43.60
2017-07-21T19:19:15.101Z,43.70
2017-07-21T19:21:46.312Z,43.60
2017-07-21T19:24:13.799Z,43.70
2017-07-21T19:26:41.276Z,43.90
2017-07-21T19:29:09.679Z,44.00
2017-07-21T19:31:45.169Z,44.20
2017-07-21T19:34:12.968Z,44.30
2017-07-21T19:36:46.191Z,44.40
2017-07-21T19:39:14.759Z,44.90
2017-07-21T19:41:43.006Z,45.00
2017-07-21T19:44:17.131Z,44.90
2017-07-21T19:46:44.611Z,45.10
2017-07-21T19:49:12.100Z,45.20
2017-07-21T19:51:39.929Z,45.30
2017-07-21T19:54:07.430Z,45.30
2017-07-21T19:56:34.915Z,45.40
2017-07-21T19:59:05.550Z,45.40
2017-07-21T20:01:33.072Z,45.40
2017-07-21T20:04:06.692Z,45.40
2017-07-21T20:06:35.107Z,45.50
2017-07-21T20:09:03.385Z,45.70
2017-07-21T20:11:37.308Z,45.70
2017-07-21T20:14:05.765Z,45.80
2017-07-21T20:16:36.392Z,46.00
2017-07-21T20:19:07.258Z,46.20
2017-07-21T20:21:35.468Z,46.10
2017-07-21T20:24:02.968Z,46.20
2017-07-21T20:26:30.760Z,46.30
2017-07-21T20:28:58.584Z,46.40
2017-07-21T20:31:26.085Z,46.50
2017-07-21T20:33:57.024Z,46.60
2017-07-21T20:36:25.255Z,46.60
2017-07-21T20:38:56.529Z,46.60
2017-07-21T20:41:25.856Z,46.80
2017-07-21T20:43:56.328Z,47.00
2017-07-21T20:46:27.320Z,47.20
2017-07-21T20:48:54.799Z,47.20
2017-07-21T20:51:22.297Z,47.40
2017-07-21T20:53:50.064Z,47.40
2017-07-21T20:56:25.316Z,47.70
2017-07-21T20:58:53.106Z,47.90
2017-07-21T21:01:26.686Z,48.10
2017-07-21T21:03:54.468Z,48.30
2017-07-21T21:06:25.246Z,48.50
2017-07-21T21:08:56.048Z,48.60
2017-07-21T21:11:25.133Z,48.80
2017-07-21T21:13:55.963Z,48.90
2017-07-21T21:16:27.063Z,48.90
2017-07-21T21:18:56.008Z,49.00
2017-07-21T21:21:25.292Z,49.10
2017-07-21T21:23:57.258Z,49.50
2017-07-21T21:26:24.750Z,49.50
2017-07-21T21:28:55.924Z,49.60
2017-07-21T21:31:23.777Z,49.70
2017-07-21T21:33:51.268Z,49.80
2017-07-21T21:36:25.631Z,49.80
2017-07-21T21:38:56.098Z,49.90
2017-07-21T21:41:26.878Z,49.90
2017-07-21T21:43:54.367Z,50.10
2017-07-21T21:46:21.850Z,50.20
2017-07-21T21:48:49.346Z,50.30
2017-07-21T21:51:25.005Z,50.90
2017-07-21T21:53:56.047Z,50.90
2017-07-21T21:56:23.526Z,50.90
2017-07-21T21:58:57.778Z,51.30
2017-07-21T22:01:34.943Z,52.20
2017-07-21T22:04:06.043Z,53.30
2017-07-21T22:06:35.256Z,56.00
2017-07-21T22:09:02.745Z,55.90
2017-07-21T22:11:30.513Z,56.90
2017-07-21T22:13:57.991Z,58.10
2017-07-21T22:16:35.616Z,58.70
2017-07-21T22:19:03.865Z,60.10
2017-07-21T22:21:31.355Z,60.00
2017-07-21T22:23:59.102Z,61.60
2017-07-21T22:26:36.350Z,62.10
2017-07-21T22:29:04.180Z,63.30
2017-07-21T22:31:37.650Z,65.00
2017-07-21T22:34:05.747Z,66.60
2017-07-21T22:36:33.235Z,68.50
2017-07-21T22:39:07.487Z,69.40
2017-07-21T22:41:36.020Z,69.90
2017-07-21T22:44:03.506Z,70.50
2017-07-21T22:46:36.775Z,71.60
2017-07-21T22:49:04.268Z,72.70
2017-07-21T22:51:35.584Z,72.90
2017-07-21T22:54:03.062Z,73.60
2017-07-21T22:56:30.548Z,74.40
2017-07-21T22:59:04.818Z,74.30
2017-07-21T23:01:32.294Z,74.40
2017-07-21T23:04:00.063Z,74.20
2017-07-21T23:06:35.367Z,74.30
2017-07-21T23:09:03.215Z,75.10
2017-07-21T23:11:36.642Z,74.50
2017-07-21T23:14:04.488Z,74.20
2017-07-21T23:16:37.851Z,74.40
2017-07-21T23:19:05.644Z,74.50
2017-07-21T23:21:36.335Z,74.30
2017-07-21T23:24:03.815Z,73.80
2017-07-21T23:26:37.613Z,73.60
2017-07-21T23:29:05.111Z,74.80
2017-07-21T23:31:35.662Z,74.80
2017-07-21T23:34:06.154Z,74.40
2017-07-21T23:36:34.407Z,75.50
2017-07-21T23:39:02.204Z,75.30
2017-07-21T23:41:29.687Z,75.10
2017-07-21T23:43:57.245Z,74.00
2017-07-21T23:46:25.997Z,73.70
2017-07-21T23:48:56.596Z,73.70
2017-07-21T23:51:24.368Z,73.40
2017-07-21T23:53:51.853Z,73.10
2017-07-21T23:56:19.340Z,73.10
2017-07-21T23:58:47.104Z,73.30
